Time;durP1;ratioP1;P1;durP2;ratioP2;P2;SDS_P1;SDS_P2;PMS_P1;PMS_P2;Temp;Humidity;BMP_temperature;BMP_pressure;BME280_temperature;BME280_humidity;BME280_pressure;Samples;Min_cycle;Max_cycle;Signal;HPM_P1;HPM_P2
2022/02/13 00:00:16;;;;;;;6.27;3.33;;;;;;;;;;5017142;28;20189;-59
2022/02/13 00:02:42;;;;;;;5.23;4.20;;;;;;;;;;5028825;28;20723;-60
2022/02/13 00:05:12;;;;;;;5.23;3.70;;;;;;;;;;5034859;28;20590;-59
2022/02/13 00:07:38;;;;;;;6.63;4.00;;;;;;;;;;5019986;28;20237;-61
2022/02/13 00:10:05;;;;;;;4.70;3.50;;;;;;;;;;5027176;28;20192;-59
2022/02/13 00:12:32;;;;;;;8.10;3.20;;;;;;;;;;5035980;28;20213;-60
2022/02/13 00:14:58;;;;;;;8.17;3.40;;;;;;;;;;5038217;28;20189;-59
2022/02/13 00:17:26;;;;;;;6.30;3.37;;;;;;;;;;5017279;28;20177;-61
2022/02/13 00:19:53;;;;;;;6.60;3.43;;;;;;;;;;5036066;28;20520;-60
2022/02/13 00:22:21;;;;;;;4.73;2.97;;;;;;;;;;5043216;28;20225;-59
2022/02/13 00:24:47;;;;;;;5.27;3.30;;;;;;;;;;5031808;28;20999;-60
2022/02/13 00:27:13;;;;;;;4.73;3.17;;;;;;;;;;5032153;28;20705;-60
2022/02/13 00:29:39;;;;;;;8.93;3.50;;;;;;;;;;5015256;28;20190;-59
2022/02/13 00:32:06;;;;;;;6.23;3.50;;;;;;;;;;5029457;28;20200;-60
2022/02/13 00:34:32;;;;;;;5.67;3.50;;;;;;;;;;5032881;28;20610;-60
2022/02/13 00:37:00;;;;;;;5.50;3.17;;;;;;;;;;5029764;28;20560;-59
2022/02/13 00:39:30;;;;;;;5.47;3.17;;;;;;;;;;5013379;28;20173;-59
2022/02/13 00:41:56;;;;;;;4.87;3.30;;;;;;;;;;5017223;28;20174;-59
2022/02/13 00:44:22;;;;;;;6.43;2.97;;;;;;;;;;5035673;28;20296;-61
2022/02/13 00:46:48;;;;;;;6.53;3.33;;;;;;;;;;5015777;28;20182;-62
2022/02/13 00:49:15;;;;;;;4.63;3.40;;;;;;;;;;5032088;28;20447;-59
2022/02/13 00:51:41;;;;;;;7.10;3.93;;;;;;;;;;5015066;28;20232;-59
2022/02/13 00:54:07;;;;;;;4.17;2.60;;;;;;;;;;5039606;28;20691;-60
2022/02/13 00:56:33;;;;;;;3.33;3.03;;;;;;;;;;5021137;28;20679;-59
2022/02/13 00:58:59;;;;;;;6.03;3.37;;;;;;;;;;5020615;28;20165;-60
2022/02/13 01:01:25;;;;;;;5.50;3.10;;;;;;;;;;5035463;28;20904;-59
2022/02/13 01:03:52;;;;;;;4.00;3.17;;;;;;;;;;5036422;28;20184;-59
2022/02/13 01:06:25;;;;;;;5.37;3.43;;;;;;;;;;5012412;28;20217;-60
2022/02/13 01:08:51;;;;;;;6.37;3.60;;;;;;;;;;5016440;28;20229;-59
2022/02/13 01:11:17;;;;;;;6.53;3.63;;;;;;;;;;5012593;28;20485;-60
2022/02/13 01:13:46;;;;;;;4.33;3.03;;;;;;;;;;5005546;28;20484;-61
2022/02/13 01:16:26;;;;;;;4.17;3.00;;;;;;;;;;5010596;28;20463;-59
2022/02/13 01:18:53;;;;;;;4.03;2.87;;;;;;;;;;5028441;28;20420;-60
2022/02/13 01:21:22;;;;;;;4.40;3.57;;;;;;;;;;5029442;28;20468;-60
2022/02/13 01:23:52;;;;;;;5.10;3.30;;;;;;;;;;5020170;28;20991;-60
2022/02/13 01:26:19;;;;;;;4.83;2.90;;;;;;;;;;5015122;28;20432;-60
2022/02/13 01:28:47;;;;;;;3.93;2.90;;;;;;;;;;5039602;28;20455;-60
2022/02/13 01:31:13;;;;;;;4.57;3.20;;;;;;;;;;5043573;28;20476;-60
2022/02/13 01:33:45;;;;;;;3.80;3.40;;;;;;;;;;5026673;28;20434;-60
2022/02/13 01:36:12;;;;;;;4.00;3.60;;;;;;;;;;5037489;28;20729;-60
2022/02/13 01:38:39;;;;;;;3.23;2.87;;;;;;;;;;5002705;28;20797;-60
2022/02/13 01:41:06;;;;;;;4.87;3.17;;;;;;;;;;5030800;28;20217;-60
2022/02/13 01:43:38;;;;;;;6.77;3.53;;;;;;;;;;5029550;28;20265;-60
2022/02/13 01:46:04;;;;;;;5.63;2.87;;;;;;;;;;5029935;28;20858;-60
2022/02/13 01:48:32;;;;;;;5.80;2.87;;;;;;;;;;5033184;28;20173;-60
2022/02/13 01:50:58;;;;;;;4.63;3.20;;;;;;;;;;5041260;28;21435;-61
2022/02/13 01:53:24;;;;;;;4.53;3.27;;;;;;;;;;5025263;28;20424;-60
2022/02/13 01:55:56;;;;;;;5.47;3.27;;;;;;;;;;5043048;28;20439;-60
2022/02/13 01:58:23;;;;;;;6.23;3.10;;;;;;;;;;5032112;28;20900;-59
2022/02/13 02:00:49;;;;;;;4.30;3.53;;;;;;;;;;5037014;28;20204;-61
2022/02/13 02:03:15;;;;;;;5.27;2.87;;;;;;;;;;5033053;28;20421;-59
2022/02/13 02:05:42;;;;;;;4.03;3.27;;;;;;;;;;5035676;28;20189;-60
2022/02/13 02:08:09;;;;;;;3.90;3.50;;;;;;;;;;5032533;28;20438;-61
2022/02/13 02:10:35;;;;;;;5.97;3.60;;;;;;;;;;5030382;28;20460;-60
2022/02/13 02:13:02;;;;;;;3.67;3.00;;;;;;;;;;5010068;28;20435;-59
2022/02/13 02:15:28;;;;;;;3.30;2.90;;;;;;;;;;5032383;28;20425;-62
2022/02/13 02:17:55;;;;;;;5.03;3.40;;;;;;;;;;5009276;28;20428;-61
2022/02/13 02:20:26;;;;;;;3.87;3.10;;;;;;;;;;5035809;28;20181;-59
2022/02/13 02:23:01;;;;;;;3.83;3.23;;;;;;;;;;5036473;28;20472;-59
2022/02/13 02:25:31;;;;;;;4.63;3.47;;;;;;;;;;5022136;28;20425;-59
2022/02/13 02:27:58;;;;;;;4.57;2.83;;;;;;;;;;5041365;28;20185;-60
2022/02/13 02:30:30;;;;;;;3.73;3.37;;;;;;;;;;5009484;28;21002;-61
2022/02/13 02:32:56;;;;;;;5.40;3.57;;;;;;;;;;5038081;28;20413;-59
2022/02/13 02:35:35;;;;;;;3.30;2.80;;;;;;;;;;5036870;28;20978;-60
2022/02/13 02:38:01;;;;;;;4.80;3.43;;;;;;;;;;5020185;28;20996;-60
2022/02/13 02:40:39;;;;;;;5.40;3.47;;;;;;;;;;5037912;28;20968;-59
2022/02/13 02:43:09;;;;;;;3.00;2.70;;;;;;;;;;5016343;28;20444;-61
2022/02/13 02:45:41;;;;;;;5.43;3.13;;;;;;;;;;5049783;28;20435;-61
2022/02/13 02:48:07;;;;;;;3.20;2.70;;;;;;;;;;5022906;28;20431;-61
2022/02/13 02:50:33;;;;;;;7.13;3.13;;;;;;;;;;5045912;28;20573;-60
2022/02/13 02:53:00;;;;;;;4.97;2.90;;;;;;;;;;5045500;28;20864;-59
2022/02/13 02:55:30;;;;;;;4.50;3.13;;;;;;;;;;5059463;28;20489;-59
2022/02/13 02:57:56;;;;;;;4.10;2.33;;;;;;;;;;5053706;28;20494;-60
2022/02/13 03:00:23;;;;;;;4.67;3.60;;;;;;;;;;5017349;28;20432;-60
2022/02/13 03:02:54;;;;;;;5.13;2.67;;;;;;;;;;5028519;28;20486;-60
2022/02/13 03:05:23;;;;;;;4.97;3.27;;;;;;;;;;5046500;28;20428;-60
2022/02/13 03:07:49;;;;;;;4.00;2.97;;;;;;;;;;5047918;28;20534;-61
2022/02/13 03:10:18;;;;;;;5.13;3.80;;;;;;;;;;5044913;28;20454;-58
2022/02/13 03:12:45;;;;;;;6.07;3.17;;;;;;;;;;5019383;28;20567;-59
2022/02/13 03:15:11;;;;;;;5.13;3.53;;;;;;;;;;5016493;28;20447;-59
2022/02/13 03:17:46;;;;;;;4.53;3.03;;;;;;;;;;5043167;28;20767;-59
2022/02/13 03:20:12;;;;;;;5.03;3.73;;;;;;;;;;5041903;28;20180;-61
2022/02/13 03:22:39;;;;;;;5.97;3.53;;;;;;;;;;5042758;28;20482;-59
2022/02/13 03:25:08;;;;;;;4.87;3.57;;;;;;;;;;5023299;28;20461;-60
2022/02/13 03:27:40;;;;;;;3.93;3.10;;;;;;;;;;5024866;28;20431;-61
2022/02/13 03:30:07;;;;;;;4.20;3.10;;;;;;;;;;5015506;28;20551;-59
2022/02/13 03:32:43;;;;;;;4.27;3.30;;;;;;;;;;5028379;28;20417;-58
2022/02/13 03:35:09;;;;;;;6.07;3.37;;;;;;;;;;5040328;28;20412;-60
2022/02/13 03:37:37;;;;;;;5.90;3.03;;;;;;;;;;5030272;28;20420;-60
2022/02/13 03:40:07;;;;;;;4.83;3.60;;;;;;;;;;5013967;28;20451;-58
2022/02/13 03:42:36;;;;;;;5.03;3.03;;;;;;;;;;5030497;28;20440;-59
2022/02/13 03:45:08;;;;;;;2.97;2.60;;;;;;;;;;5053925;28;20781;-59
2022/02/13 03:48:04;;;;;;;4.33;2.90;;;;;;;;;;5018204;28;21003;-59
2022/02/13 03:50:31;;;;;;;4.33;3.10;;;;;;;;;;5041172;28;20585;-60
2022/02/13 03:53:00;;;;;;;7.83;3.47;;;;;;;;;;5026067;28;20810;-59
2022/02/13 03:55:33;;;;;;;4.70;3.40;;;;;;;;;;5045131;28;20793;-60
2022/02/13 03:58:00;;;;;;;4.67;3.33;;;;;;;;;;5029588;28;20474;-59
2022/02/13 04:00:26;;;;;;;3.53;3.23;;;;;;;;;;5020691;28;20428;-59
2022/02/13 04:02:55;;;;;;;5.43;2.80;;;;;;;;;;5018949;28;20452;-59
2022/02/13 04:05:24;;;;;;;4.10;3.07;;;;;;;;;;5049075;28;20433;-60
2022/02/13 04:08:01;;;;;;;3.50;2.90;;;;;;;;;;5015651;28;20429;-60
2022/02/13 04:10:32;;;;;;;3.77;2.70;;;;;;;;;;5016776;28;20540;-59
2022/02/13 04:12:59;;;;;;;3.03;2.73;;;;;;;;;;5033353;28;20434;-58
2022/02/13 04:15:31;;;;;;;6.03;2.97;;;;;;;;;;5034898;28;20239;-60
2022/02/13 04:17:57;;;;;;;4.37;2.90;;;;;;;;;;5025490;28;20472;-59
2022/02/13 04:20:23;;;;;;;4.53;3.73;;;;;;;;;;5015535;28;20216;-59
2022/02/13 04:22:50;;;;;;;3.57;3.17;;;;;;;;;;5012286;28;20240;-59
2022/02/13 04:25:19;;;;;;;3.63;2.97;;;;;;;;;;5012143;28;20432;-59
2022/02/13 04:27:49;;;;;;;3.63;2.90;;;;;;;;;;5015266;28;20797;-60
2022/02/13 04:30:15;;;;;;;3.87;3.20;;;;;;;;;;5032928;28;20544;-59
2022/02/13 04:32:41;;;;;;;5.00;3.40;;;;;;;;;;5040445;28;20432;-59
2022/02/13 04:35:08;;;;;;;5.23;3.60;;;;;;;;;;5013190;28;20416;-61
2022/02/13 04:37:35;;;;;;;7.43;3.60;;;;;;;;;;5024194;28;20425;-60
2022/02/13 04:40:01;;;;;;;3.93;3.20;;;;;;;;;;5041542;28;20459;-60
2022/02/13 04:42:28;;;;;;;2.97;2.63;;;;;;;;;;5022710;28;20431;-60
2022/02/13 04:44:54;;;;;;;5.53;3.47;;;;;;;;;;5019430;28;20554;-60
2022/02/13 04:47:23;;;;;;;5.17;3.20;;;;;;;;;;5012989;28;20963;-59
2022/02/13 04:49:50;;;;;;;3.47;2.90;;;;;;;;;;5037015;28;20458;-59
2022/02/13 04:52:21;;;;;;;4.23;3.00;;;;;;;;;;5020842;28;20477;-60
2022/02/13 04:54:48;;;;;;;3.30;2.90;;;;;;;;;;5032365;28;20444;-59
2022/02/13 04:57:17;;;;;;;4.20;3.27;;;;;;;;;;5038880;28;20460;-59
2022/02/13 04:59:50;;;;;;;4.50;3.10;;;;;;;;;;5032859;28;20436;-59
2022/02/13 05:02:20;;;;;;;3.73;3.43;;;;;;;;;;5010764;28;20432;-59
2022/02/13 05:04:46;;;;;;;4.53;3.10;;;;;;;;;;5027843;28;20436;-60
2022/02/13 05:07:12;;;;;;;4.40;3.07;;;;;;;;;;5034341;28;20424;-61
2022/02/13 05:09:39;;;;;;;4.83;3.00;;;;;;;;;;5030572;28;20452;-59
2022/02/13 05:12:05;;;;;;;5.70;3.37;;;;;;;;;;5018816;28;20424;-59
2022/02/13 05:14:35;;;;;;;4.90;3.20;;;;;;;;;;5013603;28;20935;-60
2022/02/13 05:17:01;;;;;;;5.83;3.50;;;;;;;;;;5029382;28;20421;-59
2022/02/13 05:19:28;;;;;;;4.67;3.27;;;;;;;;;;5033408;28;20515;-59
2022/02/13 05:21:57;;;;;;;4.77;2.97;;;;;;;;;;5012242;28;20477;-59
2022/02/13 05:24:24;;;;;;;7.13;3.43;;;;;;;;;;5028680;28;20439;-64
2022/02/13 05:26:50;;;;;;;3.63;3.13;;;;;;;;;;5011191;28;20827;-64
2022/02/13 05:29:19;;;;;;;5.63;3.20;;;;;;;;;;5026616;28;20425;-64
2022/02/13 05:31:46;;;;;;;6.00;3.03;;;;;;;;;;5013044;28;20488;-64
2022/02/13 05:34:15;;;;;;;4.23;3.27;;;;;;;;;;5037539;28;20772;-64
2022/02/13 05:36:43;;;;;;;4.30;3.13;;;;;;;;;;5036215;28;20421;-64
2022/02/13 05:39:21;;;;;;;3.53;3.10;;;;;;;;;;5017758;28;20429;-63
2022/02/13 05:41:47;;;;;;;7.73;3.43;;;;;;;;;;5010600;28;20414;-64
2022/02/13 05:44:17;;;;;;;7.77;3.47;;;;;;;;;;5027075;28;20428;-63
2022/02/13 05:46:43;;;;;;;6.53;3.30;;;;;;;;;;5032302;28;20434;-64
2022/02/13 05:49:10;;;;;;;5.57;3.23;;;;;;;;;;5011393;28;20441;-64
2022/02/13 05:51:36;;;;;;;2.83;2.63;;;;;;;;;;5013607;28;20501;-64
2022/02/13 05:54:03;;;;;;;5.50;3.20;;;;;;;;;;5011683;28;20420;-63
2022/02/13 05:56:29;;;;;;;3.67;3.20;;;;;;;;;;5036984;28;20447;-64
2022/02/13 05:58:56;;;;;;;4.80;3.10;;;;;;;;;;5024631;28;20441;-64
2022/02/13 06:01:23;;;;;;;4.27;3.67;;;;;;;;;;5034344;28;20428;-63
2022/02/13 06:03:49;;;;;;;5.97;3.63;;;;;;;;;;5009122;28;20285;-63
2022/02/13 06:06:18;;;;;;;5.77;3.37;;;;;;;;;;5048671;28;20542;-64
2022/02/13 06:08:48;;;;;;;3.43;3.13;;;;;;;;;;5024160;28;20443;-64
2022/02/13 06:11:17;;;;;;;3.10;2.80;;;;;;;;;;5015104;28;20247;-65
2022/02/13 06:13:43;;;;;;;4.47;3.57;;;;;;;;;;5013047;28;20831;-65
2022/02/13 06:16:10;;;;;;;3.50;3.00;;;;;;;;;;5013672;28;20506;-65
2022/02/13 06:18:40;;;;;;;4.17;2.90;;;;;;;;;;5027793;28;20420;-65
2022/02/13 06:21:07;;;;;;;5.27;3.33;;;;;;;;;;5019724;28;20468;-65
2022/02/13 06:23:33;;;;;;;5.90;3.37;;;;;;;;;;5013929;28;20174;-65
2022/02/13 06:26:00;;;;;;;6.27;3.00;;;;;;;;;;5029911;28;20463;-65
2022/02/13 06:28:27;;;;;;;4.97;3.60;;;;;;;;;;5021259;28;20435;-64
2022/02/13 06:30:55;;;;;;;3.93;3.10;;;;;;;;;;5036267;28;20459;-65
2022/02/13 06:33:22;;;;;;;4.57;3.10;;;;;;;;;;5012812;28;20495;-64
2022/02/13 06:35:48;;;;;;;5.67;3.20;;;;;;;;;;5034131;28;20424;-64
2022/02/13 06:38:15;;;;;;;5.03;3.30;;;;;;;;;;5030612;28;20585;-64
2022/02/13 06:40:42;;;;;;;4.20;3.70;;;;;;;;;;5033096;28;20927;-65
2022/02/13 06:43:09;;;;;;;4.10;3.03;;;;;;;;;;5026349;28;20907;-64
2022/02/13 06:45:36;;;;;;;10.77;3.43;;;;;;;;;;5028855;28;20800;-65
2022/02/13 06:48:03;;;;;;;4.63;3.13;;;;;;;;;;5043921;28;20439;-65
2022/02/13 06:50:29;;;;;;;4.33;3.33;;;;;;;;;;5012306;28;20463;-64
2022/02/13 06:52:56;;;;;;;7.00;3.23;;;;;;;;;;5025653;28;20451;-65
2022/02/13 06:55:22;;;;;;;4.37;2.73;;;;;;;;;;5010523;28;20436;-64
2022/02/13 06:57:50;;;;;;;2.67;2.43;;;;;;;;;;5041999;28;21194;-65
2022/02/13 07:00:17;;;;;;;3.33;2.77;;;;;;;;;;5027877;28;20421;-65
2022/02/13 07:02:44;;;;;;;5.90;2.90;;;;;;;;;;5030073;28;21044;-64
2022/02/13 07:05:10;;;;;;;5.57;3.33;;;;;;;;;;5042975;28;20419;-64
2022/02/13 07:07:37;;;;;;;4.43;3.47;;;;;;;;;;5042146;28;20437;-65
2022/02/13 07:10:07;;;;;;;3.70;2.63;;;;;;;;;;5025819;28;20493;-64
2022/02/13 07:12:34;;;;;;;4.87;3.10;;;;;;;;;;5028878;28;20231;-65
2022/02/13 07:15:06;;;;;;;3.50;3.20;;;;;;;;;;5029164;28;20413;-65
2022/02/13 07:17:33;;;;;;;4.77;3.43;;;;;;;;;;5029340;28;20978;-65
2022/02/13 07:20:00;;;;;;;4.13;3.23;;;;;;;;;;5034744;28;20426;-64
2022/02/13 07:22:27;;;;;;;4.17;3.27;;;;;;;;;;5028986;28;20521;-64
2022/02/13 07:24:53;;;;;;;3.40;3.10;;;;;;;;;;5022992;28;20753;-64
2022/02/13 07:27:19;;;;;;;4.80;3.40;;;;;;;;;;5008847;28;20888;-63
2022/02/13 07:29:46;;;;;;;7.43;3.63;;;;;;;;;;5032405;28;20467;-65
2022/02/13 07:32:12;;;;;;;3.37;2.63;;;;;;;;;;5031997;28;20412;-65
2022/02/13 07:34:38;;;;;;;4.67;3.40;;;;;;;;;;5016524;28;20435;-65
2022/02/13 07:37:05;;;;;;;5.77;3.90;;;;;;;;;;5010343;28;20429;-60
2022/02/13 07:39:38;;;;;;;3.33;3.03;;;;;;;;;;5020344;28;20807;-61
2022/02/13 07:42:05;;;;;;;4.03;2.90;;;;;;;;;;5030894;28;21129;-62
2022/02/13 07:44:37;;;;;;;3.57;3.13;;;;;;;;;;5045526;28;20428;-61
2022/02/13 07:47:03;;;;;;;3.83;3.23;;;;;;;;;;5045443;28;20425;-60
2022/02/13 07:49:30;;;;;;;4.20;3.13;;;;;;;;;;5051512;28;20465;-65
2022/02/13 07:51:56;;;;;;;4.63;2.90;;;;;;;;;;5036822;28;20799;-65
2022/02/13 07:54:24;;;;;;;4.77;2.90;;;;;;;;;;5017998;28;20421;-65
2022/02/13 07:56:53;;;;;;;4.80;3.37;;;;;;;;;;5040561;28;20435;-63
2022/02/13 07:59:19;;;;;;;4.53;3.33;;;;;;;;;;5030252;28;20413;-63
2022/02/13 08:01:46;;;;;;;5.43;3.30;;;;;;;;;;5014451;28;20511;-64
2022/02/13 08:04:12;;;;;;;5.43;3.50;;;;;;;;;;5020514;28;20414;-68
2022/02/13 08:06:38;;;;;;;5.07;3.20;;;;;;;;;;5009090;28;20798;-68
2022/02/13 08:09:07;;;;;;;5.47;3.80;;;;;;;;;;5015394;28;20172;-66
2022/02/13 08:11:34;;;;;;;4.53;2.90;;;;;;;;;;5012116;28;20456;-66
2022/02/13 08:14:03;;;;;;;5.53;3.70;;;;;;;;;;5025179;28;20978;-64
2022/02/13 08:16:30;;;;;;;13.17;4.40;;;;;;;;;;5031145;28;20421;-66
2022/02/13 08:18:57;;;;;;;4.80;3.60;;;;;;;;;;5046512;28;20583;-65
2022/02/13 08:21:29;;;;;;;4.53;2.97;;;;;;;;;;5013613;28;21042;-65
2022/02/13 08:23:56;;;;;;;4.60;3.07;;;;;;;;;;5011657;28;20452;-64
2022/02/13 08:26:22;;;;;;;5.10;3.47;;;;;;;;;;5032997;28;20900;-60
2022/02/13 08:28:48;;;;;;;6.37;3.97;;;;;;;;;;5047622;28;20838;-65
2022/02/13 08:31:15;;;;;;;8.77;3.57;;;;;;;;;;5027503;28;20452;-62
2022/02/13 08:33:41;;;;;;;7.30;3.53;;;;;;;;;;5037508;28;20421;-61
2022/02/13 08:36:08;;;;;;;4.27;3.50;;;;;;;;;;5029785;28;20444;-65
2022/02/13 08:38:40;;;;;;;5.77;3.70;;;;;;;;;;5031368;28;20169;-66
2022/02/13 08:41:07;;;;;;;6.30;4.17;;;;;;;;;;5039021;28;20443;-65
2022/02/13 08:43:34;;;;;;;6.27;3.30;;;;;;;;;;5019847;28;20417;-65
2022/02/13 08:46:02;;;;;;;4.00;3.07;;;;;;;;;;5018088;28;20446;-65
2022/02/13 08:48:28;;;;;;;5.43;3.43;;;;;;;;;;5030340;28;20416;-65
2022/02/13 08:50:56;;;;;;;3.77;3.03;;;;;;;;;;5028140;28;20799;-65
2022/02/13 08:53:23;;;;;;;5.07;3.10;;;;;;;;;;5027400;28;20512;-65
2022/02/13 08:55:49;;;;;;;4.67;3.27;;;;;;;;;;5040035;28;20451;-67
2022/02/13 08:58:16;;;;;;;4.40;3.27;;;;;;;;;;5002022;28;20501;-66
2022/02/13 09:00:42;;;;;;;5.63;3.47;;;;;;;;;;5031808;28;20454;-65
2022/02/13 09:03:09;;;;;;;5.00;2.80;;;;;;;;;;5028630;28;20520;-65
2022/02/13 09:05:35;;;;;;;6.63;3.50;;;;;;;;;;5023350;28;20416;-66
2022/02/13 09:08:02;;;;;;;4.63;3.03;;;;;;;;;;5051850;28;20927;-65
2022/02/13 09:10:31;;;;;;;6.10;3.70;;;;;;;;;;5018856;28;20507;-65
2022/02/13 09:12:58;;;;;;;7.50;3.30;;;;;;;;;;5017845;28;20429;-65
2022/02/13 09:15:25;;;;;;;3.13;2.70;;;;;;;;;;5017072;28;20425;-65
2022/02/13 09:17:51;;;;;;;4.23;3.40;;;;;;;;;;5012805;28;20422;-65
2022/02/13 09:20:17;;;;;;;5.23;3.53;;;;;;;;;;5018326;28;20441;-65
2022/02/13 09:22:43;;;;;;;4.33;2.73;;;;;;;;;;5030807;28;20533;-65
2022/02/13 09:25:10;;;;;;;7.00;2.97;;;;;;;;;;5032602;28;20424;-65
2022/02/13 09:27:36;;;;;;;5.83;3.47;;;;;;;;;;5008307;28;20417;-64
2022/02/13 09:30:14;;;;;;;5.10;3.40;;;;;;;;;;5017037;28;20205;-65
2022/02/13 09:32:41;;;;;;;4.27;2.47;;;;;;;;;;5015328;28;22223;-65
2022/02/13 09:35:08;;;;;;;6.13;3.57;;;;;;;;;;5018117;28;20426;-64
2022/02/13 09:37:38;;;;;;;4.60;3.07;;;;;;;;;;5014908;28;20439;-64
2022/02/13 09:40:07;;;;;;;3.90;3.43;;;;;;;;;;5030398;28;20499;-65
2022/02/13 09:42:33;;;;;;;5.80;3.00;;;;;;;;;;5016460;28;20800;-64
2022/02/13 09:44:59;;;;;;;4.80;2.83;;;;;;;;;;5023939;28;20452;-64
2022/02/13 09:47:35;;;;;;;3.77;3.03;;;;;;;;;;4998925;28;20456;-64
2022/02/13 09:50:01;;;;;;;2.90;2.50;;;;;;;;;;5027063;28;20277;-65
2022/02/13 09:52:28;;;;;;;3.57;2.80;;;;;;;;;;5011709;28;20905;-64
2022/02/13 09:54:54;;;;;;;4.33;2.73;;;;;;;;;;5018436;28;20942;-65
2022/02/13 10:00:24;;;;;;;2.70;2.50;;;;;;;;;;4975853;28;20433;-64
2022/02/13 10:02:51;;;;;;;4.10;3.17;;;;;;;;;;4979181;28;20192;-65
2022/02/13 10:05:30;;;;;;;4.57;2.77;;;;;;;;;;4981068;28;20429;-65
2022/02/13 10:07:59;;;;;;;5.47;3.20;;;;;;;;;;5014286;28;20197;-65
2022/02/13 10:10:26;;;;;;;4.13;3.33;;;;;;;;;;5016479;28;20752;-63
2022/02/13 10:12:52;;;;;;;4.23;2.83;;;;;;;;;;5015288;28;20174;-64
2022/02/13 10:15:22;;;;;;;4.90;3.20;;;;;;;;;;5022647;28;20174;-63
2022/02/13 10:18:00;;;;;;;4.20;3.17;;;;;;;;;;5018807;28;20205;-62
2022/02/13 10:20:31;;;;;;;5.20;3.27;;;;;;;;;;5018887;28;20166;-63
2022/02/13 10:23:18;;;;;;;3.40;2.93;;;;;;;;;;4990955;28;20494;-64
2022/02/13 10:25:57;;;;;;;3.43;2.60;;;;;;;;;;5001221;28;20270;-64
2022/02/13 10:28:25;;;;;;;3.90;3.20;;;;;;;;;;4984874;28;20215;-64
2022/02/13 10:31:03;;;;;;;5.07;3.13;;;;;;;;;;4989183;28;20203;-63
2022/02/13 10:33:29;;;;;;;4.90;3.10;;;;;;;;;;5003679;28;20221;-64
2022/02/13 10:36:12;;;;;;;4.10;3.10;;;;;;;;;;5005557;28;20662;-64
2022/02/13 10:38:42;;;;;;;3.57;2.63;;;;;;;;;;5013559;28;20282;-63
2022/02/13 10:41:34;;;;;;;4.53;3.30;;;;;;;;;;4998047;28;20174;-64
2022/02/13 10:44:03;;;;;;;3.63;2.63;;;;;;;;;;4997573;28;20225;-64
2022/02/13 10:46:36;;;;;;;4.03;3.07;;;;;;;;;;4987718;28;20279;-64
2022/02/13 10:49:03;;;;;;;4.00;3.17;;;;;;;;;;4987491;28;20245;-64
2022/02/13 10:51:30;;;;;;;4.00;3.03;;;;;;;;;;5003443;28;20203;-64
2022/02/13 10:53:57;;;;;;;4.57;2.80;;;;;;;;;;5002869;28;20229;-64
2022/02/13 10:56:24;;;;;;;3.50;3.10;;;;;;;;;;4968633;28;20241;-63
2022/02/13 10:58:55;;;;;;;3.20;2.80;;;;;;;;;;5008597;28;20187;-64
2022/02/13 11:01:22;;;;;;;3.77;2.80;;;;;;;;;;5006650;28;20576;-64
2022/02/13 11:03:48;;;;;;;3.67;3.03;;;;;;;;;;5008027;28;20186;-64
2022/02/13 11:06:22;;;;;;;5.17;2.77;;;;;;;;;;4985400;28;20194;-64
2022/02/13 11:09:00;;;;;;;3.93;2.87;;;;;;;;;;5006397;28;20209;-64
2022/02/13 11:11:35;;;;;;;3.23;2.87;;;;;;;;;;4989955;28;20191;-64
2022/02/13 11:14:01;;;;;;;4.23;3.17;;;;;;;;;;5002752;28;20187;-63
2022/02/13 11:16:30;;;;;;;3.83;3.30;;;;;;;;;;5008733;28;20182;-64
2022/02/13 11:18:58;;;;;;;3.33;2.80;;;;;;;;;;5002663;28;20205;-64
2022/02/13 11:21:29;;;;;;;3.57;2.80;;;;;;;;;;5004490;28;20222;-64
2022/02/13 11:23:56;;;;;;;3.63;3.00;;;;;;;;;;4990547;28;20198;-64
2022/02/13 11:26:35;;;;;;;3.73;3.30;;;;;;;;;;5005060;28;20564;-64
2022/02/13 11:29:05;;;;;;;4.43;3.17;;;;;;;;;;5015227;28;20193;-64
2022/02/13 11:31:39;;;;;;;2.33;2.13;;;;;;;;;;5010704;28;20301;-64
2022/02/13 11:34:08;;;;;;;3.37;3.07;;;;;;;;;;4982276;28;20545;-64
2022/02/13 11:36:56;;;;;;;3.93;3.53;;;;;;;;;;5009231;28;20315;-64
2022/02/13 11:39:31;;;;;;;4.10;3.63;;;;;;;;;;5006078;28;20169;-63
2022/02/13 11:42:09;;;;;;;4.67;3.27;;;;;;;;;;5005877;28;20515;-63
2022/02/13 11:44:43;;;;;;;3.83;2.77;;;;;;;;;;4997782;28;20728;-64
2022/02/13 11:47:38;;;;;;;4.23;3.27;;;;;;;;;;5007968;28;20210;-61
2022/02/13 11:50:11;;;;;;;5.07;3.37;;;;;;;;;;5005013;28;20655;-61
2022/02/13 11:52:42;;;;;;;5.73;3.53;;;;;;;;;;5003259;28;20183;-62
2022/02/13 11:55:30;;;;;;;4.17;3.13;;;;;;;;;;5006743;28;20174;-60
2022/02/13 11:58:08;;;;;;;4.10;3.27;;;;;;;;;;5007601;28;20236;-63
2022/02/13 12:00:36;;;;;;;5.47;3.90;;;;;;;;;;4983219;28;20189;-61
2022/02/13 12:03:18;;;;;;;4.57;3.37;;;;;;;;;;4989403;28;20190;-62
2022/02/13 12:05:50;;;;;;;4.57;3.47;;;;;;;;;;4988342;28;20175;-62
2022/02/13 12:08:22;;;;;;;3.70;2.63;;;;;;;;;;4999466;28;20182;-62
2022/02/13 12:10:48;;;;;;;4.07;3.30;;;;;;;;;;4994027;28;20238;-62
2022/02/13 12:13:31;;;;;;;6.33;3.40;;;;;;;;;;5005889;28;20178;-61
2022/02/13 12:16:14;;;;;;;5.43;3.50;;;;;;;;;;4989463;28;20285;-61
2022/02/13 12:18:43;;;;;;;5.13;3.10;;;;;;;;;;5014233;28;20183;-62
2022/02/13 12:21:18;;;;;;;3.73;2.90;;;;;;;;;;5003555;28;20256;-62
2022/02/13 12:23:44;;;;;;;3.90;3.07;;;;;;;;;;5012565;28;20360;-62
2022/02/13 12:26:22;;;;;;;4.27;3.20;;;;;;;;;;5001196;28;20175;-62
2022/02/13 12:28:50;;;;;;;3.93;3.23;;;;;;;;;;5015069;28;20669;-62
2022/02/13 12:31:41;;;;;;;4.00;2.80;;;;;;;;;;5017748;28;20203;-61
2022/02/13 12:34:08;;;;;;;4.77;3.37;;;;;;;;;;5016931;28;20181;-61
2022/02/13 12:36:34;;;;;;;7.90;3.70;;;;;;;;;;5020035;28;20205;-62
2022/02/13 12:39:06;;;;;;;5.20;3.20;;;;;;;;;;4999501;28;20352;-62
2022/02/13 12:41:32;;;;;;;4.37;3.10;;;;;;;;;;5017662;28;20197;-62
2022/02/13 12:47:06;;;;;;;4.07;2.97;;;;;;;;;;4965355;28;20191;-63
2022/02/13 12:49:32;;;;;;;5.60;3.43;;;;;;;;;;5011901;28;20619;-63
2022/02/13 12:51:58;;;;;;;3.60;2.80;;;;;;;;;;5008127;28;20179;-63
2022/02/13 12:54:30;;;;;;;3.57;3.10;;;;;;;;;;5006421;28;20644;-63
2022/02/13 12:57:18;;;;;;;3.67;2.70;;;;;;;;;;5011532;28;20698;-62
2022/02/13 13:00:07;;;;;;;4.57;3.83;;;;;;;;;;5003075;28;20175;-62
2022/02/13 13:02:47;;;;;;;5.80;3.60;;;;;;;;;;4999200;28;20179;-63
2022/02/13 13:05:19;;;;;;;4.13;3.10;;;;;;;;;;4996348;28;20567;-62
2022/02/13 13:07:46;;;;;;;4.43;3.97;;;;;;;;;;4998156;28;20171;-63
2022/02/13 13:10:28;;;;;;;4.77;4.27;;;;;;;;;;5008420;28;20273;-64
2022/02/13 13:13:08;;;;;;;10.97;4.43;;;;;;;;;;5017307;28;20183;-64
2022/02/13 13:15:35;;;;;;;146.03;88.80;;;;;;;;;;5009926;28;20706;-60
2022/02/13 13:18:03;;;;;;;275.93;178.23;;;;;;;;;;4978000;28;20183;-62
2022/02/13 13:20:46;;;;;;;351.13;218.93;;;;;;;;;;4998923;28;20189;-61
2022/02/13 13:23:16;;;;;;;205.70;136.03;;;;;;;;;;5018550;28;20741;-63
2022/02/13 13:25:46;;;;;;;174.77;110.73;;;;;;;;;;5020682;28;20553;-62
2022/02/13 13:28:15;;;;;;;138.20;95.33;;;;;;;;;;5018942;28;20626;-63
2022/02/13 13:30:47;;;;;;;93.27;64.60;;;;;;;;;;5006280;28;20209;-61
2022/02/13 13:33:16;;;;;;;89.10;59.07;;;;;;;;;;5009571;28;20236;-66
2022/02/13 13:35:43;;;;;;;10.97;6.00;;;;;;;;;;4998357;28;20175;-62
2022/02/13 13:38:12;;;;;;;4.80;3.03;;;;;;;;;;5010285;28;20904;-65
2022/02/13 13:40:41;;;;;;;5.43;3.10;;;;;;;;;;5005804;28;20641;-61
2022/02/13 13:43:12;;;;;;;5.67;3.40;;;;;;;;;;4993821;28;20266;-61
2022/02/13 13:45:41;;;;;;;4.80;3.20;;;;;;;;;;5018512;28;20199;-63
2022/02/13 13:48:12;;;;;;;6.67;3.03;;;;;;;;;;5012584;28;20217;-66
2022/02/13 13:50:42;;;;;;;3.77;2.90;;;;;;;;;;5007629;28;20658;-65
2022/02/13 13:53:11;;;;;;;3.33;2.80;;;;;;;;;;5018986;28;20640;-65
2022/02/13 13:55:40;;;;;;;7.80;3.20;;;;;;;;;;5010436;28;20175;-65
2022/02/13 13:58:06;;;;;;;3.83;3.17;;;;;;;;;;5022152;28;20653;-59
2022/02/13 14:00:33;;;;;;;6.17;3.03;;;;;;;;;;5000467;28;20232;-59
2022/02/13 14:03:00;;;;;;;4.13;3.03;;;;;;;;;;5021345;28;20191;-59
2022/02/13 14:05:28;;;;;;;6.60;3.83;;;;;;;;;;5005297;28;20264;-59
2022/02/13 14:07:56;;;;;;;4.70;4.00;;;;;;;;;;5010039;28;20200;-59
2022/02/13 14:10:23;;;;;;;5.27;3.87;;;;;;;;;;5009646;28;20372;-59
2022/02/13 14:12:50;;;;;;;5.57;3.43;;;;;;;;;;5018323;28;20191;-59
2022/02/13 14:15:20;;;;;;;3.70;3.10;;;;;;;;;;5017647;28;20179;-59
2022/02/13 14:17:47;;;;;;;5.37;3.47;;;;;;;;;;5013477;28;20184;-59
2022/02/13 14:20:13;;;;;;;7.33;3.43;;;;;;;;;;4993010;28;20397;-59
2022/02/13 14:22:39;;;;;;;5.13;3.67;;;;;;;;;;5017812;28;20587;-58
2022/02/13 14:25:07;;;;;;;5.17;3.73;;;;;;;;;;5032627;28;20188;-59
2022/02/13 14:27:34;;;;;;;12.80;4.67;;;;;;;;;;5034710;28;20649;-58
2022/02/13 14:30:00;;;;;;;6.50;3.47;;;;;;;;;;5014155;28;20257;-60
2022/02/13 14:32:26;;;;;;;5.00;3.80;;;;;;;;;;5011272;28;20193;-59
2022/02/13 14:34:53;;;;;;;5.40;3.70;;;;;;;;;;5024889;28;20192;-57
2022/02/13 14:37:20;;;;;;;27.17;4.17;;;;;;;;;;5028690;28;20251;-56
2022/02/13 14:39:46;;;;;;;6.23;3.47;;;;;;;;;;5029411;28;20181;-63
2022/02/13 14:42:15;;;;;;;5.37;3.50;;;;;;;;;;5032426;28;20190;-68
2022/02/13 14:44:42;;;;;;;5.40;3.87;;;;;;;;;;5024359;28;20178;-65
2022/02/13 14:47:08;;;;;;;4.50;3.50;;;;;;;;;;5015036;28;20279;-68
2022/02/13 14:49:39;;;;;;;5.50;3.77;;;;;;;;;;5032322;28;20190;-68
2022/02/13 14:52:06;;;;;;;3.70;2.70;;;;;;;;;;5012024;28;20170;-68
2022/02/13 14:54:52;;;;;;;5.93;3.50;;;;;;;;;;5015836;28;20186;-64
2022/02/13 14:57:39;;;;;;;6.70;3.80;;;;;;;;;;5012607;28;20557;-68